createdAt,value
2019-02-25T00:00:03.156Z,73.72
2019-02-25T00:01:03.125Z,74.87
2019-02-25T00:02:03.098Z,74.87
2019-02-25T00:03:03.076Z,74.58
2019-02-25T00:04:03.053Z,74.11
2019-02-25T00:05:03.028Z,74.20
2019-02-25T00:06:03.274Z,74.87
2019-02-25T00:07:02.977Z,74.87
2019-02-25T00:08:02.951Z,74.39
2019-02-25T00:09:02.928Z,74.96
2019-02-25T00:10:02.903Z,75.72
2019-02-25T00:11:02.879Z,75.43
2019-02-25T00:12:02.863Z,74.96
2019-02-25T00:13:02.828Z,75.24
2019-02-25T00:14:02.807Z,75.43
2019-02-25T00:15:02.782Z,74.77
2019-02-25T00:16:02.754Z,74.68
2019-02-25T00:17:02.730Z,74.49
2019-02-25T00:18:02.710Z,74.39
2019-02-25T00:19:02.688Z,74.68
2019-02-25T00:20:02.656Z,74.87
2019-02-25T00:21:02.633Z,74.87
2019-02-25T00:22:02.605Z,74.96
2019-02-25T00:23:02.580Z,74.87
2019-02-25T00:24:02.567Z,74.64
2019-02-25T00:25:02.531Z,75.34
2019-02-25T00:26:02.563Z,75.21
2019-02-25T00:27:02.485Z,75.53
2019-02-25T00:28:02.457Z,77.01
2019-02-25T00:29:02.457Z,77.43
2019-02-25T00:30:02.408Z,77.33
2019-02-25T00:31:02.383Z,76.86
2019-02-25T00:32:02.363Z,76.67
2019-02-25T00:33:02.333Z,75.78
2019-02-25T00:34:02.308Z,76.15
2019-02-25T00:35:02.287Z,76.44
2019-02-25T00:36:02.258Z,76.92
2019-02-25T00:37:02.235Z,77.58
2019-02-25T00:38:02.208Z,77.86
2019-02-25T00:39:02.184Z,78.43
2019-02-25T00:40:02.158Z,78.43
2019-02-25T00:41:02.134Z,79.00
2019-02-25T00:42:02.108Z,78.53
2019-02-25T00:43:02.086Z,78.72
2019-02-25T00:44:02.061Z,78.81
2019-02-25T00:45:02.036Z,78.72
2019-02-25T00:46:02.011Z,78.91
2019-02-25T00:47:01.985Z,79.28
2019-02-25T00:48:01.959Z,79.95
2019-02-25T00:49:01.936Z,79.95
2019-02-25T00:50:01.922Z,80.04
2019-02-25T00:51:01.883Z,79.85
2019-02-25T00:52:01.860Z,80.14
2019-02-25T00:53:01.837Z,80.04
2019-02-25T00:54:01.809Z,79.47
2019-02-25T00:55:01.786Z,79.47
2019-02-25T00:56:01.761Z,80.43
2019-02-25T00:57:01.736Z,80.14
2019-02-25T00:58:01.714Z,80.62
2019-02-25T00:59:01.685Z,80.62
2019-02-25T01:00:01.662Z,80.62
2019-02-25T01:01:01.638Z,80.43
2019-02-25T01:02:01.626Z,80.62
2019-02-25T01:03:01.589Z,80.99
2019-02-25T01:04:01.559Z,81.09
2019-02-25T01:05:01.536Z,80.99
2019-02-25T01:06:01.512Z,81.18
2019-02-25T01:07:01.645Z,80.80
2019-02-25T01:08:01.460Z,80.80
2019-02-25T01:09:01.454Z,80.71
2019-02-25T01:10:01.410Z,80.80
2019-02-25T01:11:01.388Z,80.71
2019-02-25T01:12:01.361Z,80.99
2019-02-25T01:13:01.335Z,80.24
2019-02-25T01:14:01.321Z,79.57
2019-02-25T01:15:01.283Z,80.71
2019-02-25T01:16:01.260Z,80.62
2019-02-25T01:17:01.247Z,81.09
2019-02-25T01:18:01.208Z,80.52
2019-02-25T01:19:01.188Z,81.18
2019-02-25T01:20:01.170Z,81.37
2019-02-25T01:21:01.145Z,80.52
2019-02-25T01:22:01.130Z,80.80
2019-02-25T01:23:01.083Z,80.80
2019-02-25T01:24:01.058Z,80.62
2019-02-25T01:25:01.043Z,80.90
2019-02-25T01:26:01.010Z,80.99
2019-02-25T01:27:00.984Z,80.99
2019-02-25T01:28:00.958Z,81.66
2019-02-25T01:29:00.933Z,80.71
2019-02-25T01:30:00.906Z,81.27
2019-02-25T01:31:00.912Z,81.75
2019-02-25T01:32:00.856Z,80.99
2019-02-25T01:33:00.853Z,81.09
2019-02-25T01:34:00.811Z,81.18
2019-02-25T01:35:00.780Z,81.27
2019-02-25T01:36:00.757Z,80.99
2019-02-25T01:37:00.733Z,80.99
2019-02-25T01:38:00.705Z,81.56
2019-02-25T01:39:00.678Z,81.27
2019-02-25T01:40:00.662Z,81.27
2019-02-25T01:41:00.629Z,81.27
2019-02-25T01:42:00.606Z,81.85
2019-02-25T01:43:00.580Z,82.04
2019-02-25T01:44:00.557Z,81.56
2019-02-25T01:45:00.529Z,82.13
2019-02-25T01:46:00.501Z,81.66
2019-02-25T01:47:00.477Z,82.13
2019-02-25T01:48:00.458Z,81.94
2019-02-25T01:49:00.427Z,81.85
2019-02-25T01:50:00.401Z,81.94
2019-02-25T01:51:00.375Z,81.85
2019-02-25T01:52:00.350Z,82.23
2019-02-25T01:53:00.327Z,82.04
2019-02-25T01:54:00.300Z,81.71
2019-02-25T01:55:00.308Z,82.09
2019-02-25T01:56:00.261Z,81.81
2019-02-25T01:57:00.227Z,81.71
2019-02-25T01:58:00.197Z,81.81
2019-02-25T01:59:00.173Z,81.62
2019-02-25T02:00:00.311Z,81.90
2019-02-25T02:01:00.129Z,81.47
2019-02-25T02:02:00.096Z,81.14
2019-02-25T02:03:00.148Z,80.67
2019-02-25T02:04:00.047Z,81.33
2019-02-25T02:05:00.100Z,81.33
2019-02-25T02:05:59.995Z,81.33
2019-02-25T02:07:00.129Z,81.14
2019-02-25T02:07:59.953Z,81.05
2019-02-25T02:08:59.919Z,81.05
2019-02-25T02:09:59.893Z,80.86
2019-02-25T02:10:59.869Z,80.86
2019-02-25T02:11:59.844Z,81.09
2019-02-25T02:12:59.819Z,81.24
2019-02-25T02:13:59.791Z,81.62
2019-02-25T02:14:59.766Z,82.09
2019-02-25T02:15:59.743Z,82.18
2019-02-25T02:16:59.718Z,81.62
2019-02-25T02:17:59.690Z,81.05
2019-02-25T02:18:59.667Z,81.43
2019-02-25T02:19:59.644Z,81.05
2019-02-25T02:20:59.614Z,81.81
2019-02-25T02:21:59.588Z,81.71
2019-02-25T02:22:59.564Z,81.71
2019-02-25T02:23:59.537Z,81.62
2019-02-25T02:24:59.513Z,82.28
2019-02-25T02:25:59.486Z,81.52
2019-02-25T02:26:59.462Z,81.90
2019-02-25T02:27:59.435Z,81.62
2019-02-25T02:28:59.409Z,81.99
2019-02-25T02:29:59.388Z,82.18
2019-02-25T02:30:59.359Z,82.09
2019-02-25T02:31:59.335Z,81.52
2019-02-25T02:32:59.308Z,82.37
2019-02-25T02:33:59.280Z,81.43
2019-02-25T02:34:59.262Z,80.86
2019-02-25T02:35:59.235Z,81.43
2019-02-25T02:36:59.207Z,81.05
2019-02-25T02:37:59.184Z,81.33
2019-02-25T02:39:00.284Z,81.52
2019-02-25T02:39:59.137Z,81.43
2019-02-25T02:40:59.123Z,81.33
2019-02-25T02:41:59.093Z,81.62
2019-02-25T02:42:59.056Z,81.90
2019-02-25T02:43:59.029Z,82.28
2019-02-25T02:44:59.001Z,82.18
2019-02-25T02:45:58.974Z,82.09
2019-02-25T02:46:58.953Z,82.47
2019-02-25T02:47:58.940Z,82.56
2019-02-25T02:48:58.899Z,82.47
2019-02-25T02:49:58.871Z,82.85
2019-02-25T02:50:58.846Z,82.85
2019-02-25T02:51:58.822Z,82.75
2019-02-25T02:52:58.794Z,82.56
2019-02-25T02:53:58.769Z,82.56
2019-02-25T02:54:58.751Z,82.18
2019-02-25T02:55:58.727Z,82.18
2019-02-25T02:56:58.698Z,82.09
2019-02-25T02:57:58.667Z,82.28
2019-02-25T02:58:58.643Z,81.99
2019-02-25T02:59:58.621Z,82.37
2019-02-25T03:00:58.591Z,81.99
2019-02-25T03:01:58.565Z,82.09
2019-02-25T03:02:58.543Z,82.28
2019-02-25T03:03:58.512Z,82.28
2019-02-25T03:04:58.489Z,82.09
2019-02-25T03:05:58.460Z,82.28
2019-02-25T03:06:58.437Z,82.18
2019-02-25T03:07:58.412Z,81.99
2019-02-25T03:08:58.389Z,81.99
2019-02-25T03:09:58.934Z,82.09
2019-02-25T03:10:58.333Z,82.37
2019-02-25T03:11:58.309Z,82.47
2019-02-25T03:12:58.283Z,82.47
2019-02-25T03:13:58.260Z,82.28
2019-02-25T03:14:58.229Z,82.18
2019-02-25T03:15:58.205Z,82.56
2019-02-25T03:16:58.181Z,82.56
2019-02-25T03:17:58.152Z,82.47
2019-02-25T03:18:58.131Z,82.75
2019-02-25T03:19:58.101Z,82.56
2019-02-25T03:20:58.091Z,82.75
2019-02-25T03:21:58.049Z,82.94
2019-02-25T03:22:58.027Z,82.66
2019-02-25T03:23:58.002Z,82.66
2019-02-25T03:24:57.975Z,82.75
2019-02-25T03:25:57.945Z,83.42
2019-02-25T03:26:57.922Z,83.47
2019-02-25T03:27:57.894Z,83.37
2019-02-25T03:28:57.869Z,83.28
2019-02-25T03:29:57.845Z,83.37
2019-02-25T03:30:57.821Z,83.28
2019-02-25T03:31:57.792Z,83.80
2019-02-25T03:32:57.766Z,83.98
2019-02-25T03:33:57.747Z,83.98
2019-02-25T03:34:57.720Z,84.42
2019-02-25T03:35:57.690Z,84.42
2019-02-25T03:36:57.661Z,84.42
2019-02-25T03:37:57.637Z,84.32
2019-02-25T03:38:57.616Z,84.13
2019-02-25T03:39:58.426Z,84.13
2019-02-25T03:40:57.563Z,84.61
2019-02-25T03:41:57.531Z,84.42
2019-02-25T03:42:57.505Z,84.42
2019-02-25T03:43:57.480Z,84.23
2019-02-25T03:44:57.456Z,84.13
2019-02-25T03:45:57.451Z,84.13
2019-02-25T03:46:57.404Z,84.42
2019-02-25T03:47:57.379Z,84.23
2019-02-25T03:48:57.352Z,84.42
2019-02-25T03:49:57.329Z,84.42
2019-02-25T03:50:57.297Z,84.23
2019-02-25T03:51:57.276Z,84.42
2019-02-25T03:52:57.264Z,84.51
2019-02-25T03:53:57.226Z,84.70
2019-02-25T03:54:57.193Z,84.13
2019-02-25T03:55:57.203Z,84.51
2019-02-25T03:56:57.142Z,84.61
2019-02-25T03:57:57.115Z,84.99
2019-02-25T03:58:57.090Z,84.89
2019-02-25T03:59:57.065Z,84.80
2019-02-25T04:00:57.045Z,84.80
2019-02-25T04:01:57.013Z,84.80
2019-02-25T04:02:56.986Z,85.17
2019-02-25T04:03:56.958Z,85.17
2019-02-25T04:04:56.939Z,84.61
2019-02-25T04:05:56.907Z,84.89
2019-02-25T04:06:56.880Z,85.08
2019-02-25T04:07:56.865Z,85.08
2019-02-25T04:08:56.830Z,85.27
2019-02-25T04:09:56.806Z,85.17
2019-02-25T04:10:56.776Z,85.17
2019-02-25T04:11:56.752Z,85.17
2019-02-25T04:12:56.729Z,84.89
2019-02-25T04:13:56.697Z,84.89
2019-02-25T04:14:56.673Z,85.17
2019-02-25T04:15:56.648Z,84.99
2019-02-25T04:16:56.620Z,84.61
2019-02-25T04:17:56.597Z,84.23
2019-02-25T04:18:56.571Z,84.32
2019-02-25T04:19:56.541Z,84.13
2019-02-25T04:20:56.518Z,84.32
2019-02-25T04:21:56.489Z,84.61
2019-02-25T04:22:56.462Z,84.23
2019-02-25T04:23:56.445Z,84.51
2019-02-25T04:24:56.414Z,84.13
2019-02-25T04:25:56.386Z,84.42
2019-02-25T04:26:56.364Z,84.32
2019-02-25T04:27:56.331Z,84.51
2019-02-25T04:28:56.312Z,84.70
2019-02-25T04:29:56.282Z,84.32
2019-02-25T04:30:56.251Z,84.42
2019-02-25T04:31:56.226Z,84.51
2019-02-25T04:32:56.203Z,84.51
2019-02-25T04:33:56.172Z,84.89
2019-02-25T04:34:56.147Z,84.80
2019-02-25T04:35:56.122Z,85.08
2019-02-25T04:36:56.097Z,84.51
2019-02-25T04:37:56.068Z,84.42
2019-02-25T04:38:56.051Z,84.89
2019-02-25T04:39:56.016Z,84.99
2019-02-25T04:40:56.739Z,84.89
2019-02-25T04:41:55.965Z,84.89
2019-02-25T04:42:55.939Z,84.89
2019-02-25T04:43:55.954Z,84.99
2019-02-25T04:44:55.883Z,84.89
2019-02-25T04:45:55.857Z,85.46
2019-02-25T04:46:55.840Z,85.08
2019-02-25T04:47:55.805Z,84.61
2019-02-25T04:48:55.781Z,85.08
2019-02-25T04:49:55.750Z,84.99
2019-02-25T04:50:55.724Z,85.27
2019-02-25T04:51:55.701Z,85.17
2019-02-25T04:52:55.673Z,85.27
2019-02-25T04:53:55.646Z,84.89
2019-02-25T04:54:55.624Z,85.08
2019-02-25T04:55:55.595Z,84.99
2019-02-25T04:56:55.579Z,84.80
2019-02-25T04:57:55.567Z,84.70
2019-02-25T04:58:55.514Z,84.99
2019-02-25T04:59:55.489Z,84.99
2019-02-25T05:00:55.467Z,84.89
2019-02-25T05:01:55.504Z,84.99
2019-02-25T05:02:55.415Z,84.80
2019-02-25T05:03:55.387Z,84.89
2019-02-25T05:04:55.358Z,84.99
2019-02-25T05:05:55.329Z,85.17
2019-02-25T05:06:55.305Z,85.08
2019-02-25T05:07:55.277Z,85.08
2019-02-25T05:08:55.251Z,85.08
2019-02-25T05:09:55.229Z,84.89
2019-02-25T05:10:55.201Z,84.99
2019-02-25T05:11:55.172Z,84.89
2019-02-25T05:12:55.147Z,85.08
2019-02-25T05:13:55.117Z,85.27
2019-02-25T05:14:55.092Z,85.27
2019-02-25T05:15:55.077Z,84.99
2019-02-25T05:16:55.049Z,84.89
2019-02-25T05:17:55.024Z,84.70
2019-02-25T05:18:54.986Z,85.08
2019-02-25T05:19:54.960Z,84.89
2019-02-25T05:20:54.980Z,84.89
2019-02-25T05:21:54.908Z,85.17
2019-02-25T05:22:54.889Z,84.61
2019-02-25T05:23:54.905Z,84.70
2019-02-25T05:24:54.830Z,84.70
2019-02-25T05:25:54.801Z,84.61
2019-02-25T05:26:54.774Z,84.99
2019-02-25T05:27:54.750Z,84.89
2019-02-25T05:28:54.743Z,84.70
2019-02-25T05:29:54.699Z,84.80
2019-02-25T05:30:54.786Z,84.89
2019-02-25T05:31:54.644Z,84.89
2019-02-25T05:32:54.620Z,84.89
2019-02-25T05:33:54.592Z,84.70
2019-02-25T05:34:54.570Z,84.70
2019-02-25T05:35:54.540Z,84.80
2019-02-25T05:36:54.513Z,84.99
2019-02-25T05:37:54.486Z,84.70
2019-02-25T05:38:54.464Z,84.80
2019-02-25T05:39:54.433Z,84.70
2019-02-25T05:40:54.422Z,84.70
2019-02-25T05:41:54.381Z,85.17
2019-02-25T05:42:54.363Z,84.70
2019-02-25T05:43:54.329Z,85.17
2019-02-25T05:44:54.305Z,84.99
2019-02-25T05:45:54.370Z,84.99
2019-02-25T05:46:54.261Z,84.80
2019-02-25T05:47:54.234Z,84.42
2019-02-25T05:48:54.197Z,84.51
2019-02-25T05:49:54.173Z,84.51
2019-02-25T05:50:54.144Z,84.51
2019-02-25T05:51:54.120Z,84.70
2019-02-25T05:52:54.097Z,84.42
2019-02-25T05:53:54.066Z,84.70
2019-02-25T05:54:54.044Z,85.08
2019-02-25T05:55:54.017Z,84.89
2019-02-25T05:56:53.987Z,84.89
2019-02-25T05:57:53.971Z,84.99
2019-02-25T05:58:53.935Z,85.08
2019-02-25T05:59:53.909Z,84.99
2019-02-25T06:00:53.881Z,85.08
2019-02-25T06:01:53.857Z,84.70
2019-02-25T06:02:53.828Z,84.89
2019-02-25T06:03:53.800Z,85.08
2019-02-25T06:04:53.781Z,85.17
2019-02-25T06:05:53.748Z,84.61
2019-02-25T06:06:53.729Z,84.89
2019-02-25T06:07:53.709Z,84.89
2019-02-25T06:08:54.274Z,84.89
2019-02-25T06:09:53.644Z,84.89
2019-02-25T06:10:53.617Z,85.17
2019-02-25T06:11:53.592Z,84.89
2019-02-25T06:12:53.564Z,85.17
2019-02-25T06:13:53.546Z,85.27
2019-02-25T06:14:53.584Z,85.27
2019-02-25T06:15:53.495Z,84.80
2019-02-25T06:16:53.527Z,85.46
2019-02-25T06:17:53.433Z,85.08
2019-02-25T06:18:53.410Z,85.08
2019-02-25T06:19:53.379Z,85.17
2019-02-25T06:20:53.353Z,85.27
2019-02-25T06:21:53.327Z,85.08
2019-02-25T06:22:53.309Z,84.89
2019-02-25T06:23:53.275Z,85.08
2019-02-25T06:24:53.249Z,84.51
2019-02-25T06:25:53.221Z,85.08
2019-02-25T06:26:53.196Z,85.08
2019-02-25T06:27:53.167Z,84.99
2019-02-25T06:28:53.145Z,85.84
2019-02-25T06:29:53.131Z,85.84
2019-02-25T06:30:53.090Z,85.93
2019-02-25T06:31:53.068Z,85.93
2019-02-25T06:32:53.036Z,85.84
2019-02-25T06:33:53.008Z,86.03
2019-02-25T06:34:52.983Z,85.84
2019-02-25T06:35:52.960Z,85.84
2019-02-25T06:36:52.931Z,85.93
2019-02-25T06:37:52.993Z,85.84
2019-02-25T06:38:52.881Z,85.61
2019-02-25T06:39:52.850Z,85.61
2019-02-25T06:40:52.825Z,85.61
2019-02-25T06:41:52.798Z,85.65
2019-02-25T06:42:52.794Z,85.70
2019-02-25T06:43:52.750Z,86.36
2019-02-25T06:44:52.721Z,86.18
2019-02-25T06:45:52.695Z,86.27
2019-02-25T06:46:52.667Z,86.18
2019-02-25T06:47:52.642Z,85.99
2019-02-25T06:48:52.614Z,86.27
2019-02-25T06:49:52.588Z,86.18
2019-02-25T06:50:52.560Z,86.27
2019-02-25T06:51:52.535Z,86.18
2019-02-25T06:52:52.512Z,86.27
2019-02-25T06:53:52.482Z,86.27
2019-02-25T06:54:52.472Z,86.36
2019-02-25T06:55:52.431Z,86.46
2019-02-25T06:56:52.405Z,86.22
2019-02-25T06:57:52.377Z,86.27
2019-02-25T06:58:52.348Z,86.31
2019-02-25T06:59:52.326Z,86.27
2019-02-25T07:00:52.309Z,86.22
2019-02-25T07:01:52.269Z,86.27
2019-02-25T07:02:52.248Z,86.12
2019-02-25T07:03:52.219Z,86.12
2019-02-25T07:04:52.191Z,86.31
2019-02-25T07:05:52.163Z,86.22
2019-02-25T07:06:52.155Z,86.31
2019-02-25T07:07:52.113Z,86.41
2019-02-25T07:08:53.013Z,86.12
2019-02-25T07:09:52.068Z,86.03
2019-02-25T07:10:52.030Z,86.12
2019-02-25T07:11:52.014Z,86.31
2019-02-25T07:12:51.980Z,86.31
2019-02-25T07:13:51.951Z,86.22
2019-02-25T07:14:51.928Z,86.22
2019-02-25T07:15:51.908Z,86.22
2019-02-25T07:16:51.872Z,86.69
2019-02-25T07:17:51.846Z,86.69
2019-02-25T07:18:51.819Z,86.50
2019-02-25T07:19:51.794Z,86.50
2019-02-25T07:20:51.768Z,86.98
2019-02-25T07:21:51.744Z,86.88
2019-02-25T07:22:51.714Z,86.88
2019-02-25T07:23:51.691Z,86.50
2019-02-25T07:24:53.033Z,87.07
2019-02-25T07:25:51.634Z,86.60
2019-02-25T07:26:51.611Z,86.98
2019-02-25T07:27:51.582Z,87.07
2019-02-25T07:28:51.556Z,87.07
2019-02-25T07:29:51.528Z,87.26
2019-02-25T07:30:51.506Z,87.35
2019-02-25T07:31:51.476Z,87.35
2019-02-25T07:32:51.451Z,87.16
2019-02-25T07:33:51.427Z,87.45
2019-02-25T07:34:51.412Z,87.35
2019-02-25T07:35:51.423Z,87.16
2019-02-25T07:36:51.346Z,87.26
2019-02-25T07:37:51.798Z,87.07
2019-02-25T07:38:51.292Z,87.26
2019-02-25T07:39:51.270Z,86.98
2019-02-25T07:40:51.242Z,86.60
2019-02-25T07:41:51.217Z,87.35
2019-02-25T07:42:51.192Z,87.07
2019-02-25T07:43:51.161Z,87.26
2019-02-25T07:44:51.138Z,87.07
2019-02-25T07:45:51.117Z,86.64
2019-02-25T07:46:51.084Z,87.21
2019-02-25T07:47:51.057Z,87.40
2019-02-25T07:48:51.038Z,87.40
2019-02-25T07:49:51.008Z,87.40
2019-02-25T07:50:50.979Z,87.30
2019-02-25T07:51:50.953Z,86.55
2019-02-25T07:52:50.929Z,86.45
2019-02-25T07:53:50.902Z,86.16
2019-02-25T07:54:50.883Z,85.60
2019-02-25T07:55:50.851Z,85.88
2019-02-25T07:56:50.826Z,85.13
2019-02-25T07:57:50.796Z,85.13
2019-02-25T07:58:50.770Z,85.03
2019-02-25T07:59:50.746Z,85.22
2019-02-25T08:00:50.725Z,85.88
2019-02-25T08:01:50.754Z,84.55
2019-02-25T08:02:50.667Z,85.07
2019-02-25T08:03:50.642Z,84.31
2019-02-25T08:04:50.619Z,84.50
2019-02-25T08:05:50.590Z,84.59
2019-02-25T08:06:50.567Z,84.78
2019-02-25T08:07:50.541Z,85.17
2019-02-25T08:08:50.522Z,85.26
2019-02-25T08:09:51.028Z,85.17
2019-02-25T08:10:50.463Z,84.88
2019-02-25T08:11:50.439Z,84.78
2019-02-25T08:12:50.409Z,83.74
2019-02-25T08:13:50.384Z,83.94
2019-02-25T08:14:50.379Z,84.59
2019-02-25T08:15:50.336Z,85.07
2019-02-25T08:16:50.311Z,85.07
2019-02-25T08:17:50.287Z,84.69
2019-02-25T08:18:50.258Z,83.65
2019-02-25T08:19:50.240Z,81.70
2019-02-25T08:20:50.209Z,81.13
2019-02-25T08:21:50.184Z,80.84
2019-02-25T08:22:50.159Z,82.08
2019-02-25T08:23:50.132Z,82.55
2019-02-25T08:24:50.122Z,81.98
2019-02-25T08:25:51.983Z,80.27
2019-02-25T08:26:50.057Z,79.90
2019-02-25T08:27:50.031Z,81.23
2019-02-25T08:28:50.024Z,80.94
2019-02-25T08:29:49.980Z,81.51
2019-02-25T08:30:49.955Z,79.80
2019-02-25T08:31:49.930Z,79.71
2019-02-25T08:32:49.912Z,80.75
2019-02-25T08:33:49.880Z,81.93
2019-02-25T08:34:49.858Z,82.03
2019-02-25T08:35:49.834Z,82.12
2019-02-25T08:36:49.804Z,82.31
2019-02-25T08:37:49.779Z,80.60
2019-02-25T08:38:49.756Z,76.32
2019-02-25T08:39:49.739Z,77.28
2019-02-25T08:40:49.713Z,77.84
2019-02-25T08:41:49.680Z,76.23
2019-02-25T08:42:49.656Z,76.99
2019-02-25T08:43:49.634Z,78.51
2019-02-25T08:44:49.615Z,79.74
2019-02-25T08:45:49.585Z,80.13
2019-02-25T08:46:49.560Z,76.32
2019-02-25T08:47:49.533Z,74.18
2019-02-25T08:48:49.510Z,74.75
2019-02-25T08:49:49.486Z,73.61
2019-02-25T08:50:49.460Z,74.75
2019-02-25T08:51:49.436Z,76.84
2019-02-25T08:52:49.414Z,78.27
2019-02-25T08:53:49.385Z,77.60
2019-02-25T08:54:49.360Z,77.70
2019-02-25T08:55:49.338Z,78.45
2019-02-25T08:56:49.313Z,79.88
2019-02-25T08:57:49.286Z,79.79
2019-02-25T08:58:49.263Z,77.03
2019-02-25T08:59:49.248Z,77.79
2019-02-25T09:00:49.214Z,78.17
2019-02-25T09:01:49.194Z,78.36
2019-02-25T09:02:49.169Z,78.45
2019-02-25T09:03:49.140Z,78.64
2019-02-25T09:04:49.343Z,78.93
2019-02-25T09:05:49.092Z,79.22
2019-02-25T09:06:49.069Z,79.60
2019-02-25T09:07:49.046Z,78.74
2019-02-25T09:08:49.022Z,77.31
2019-02-25T09:09:49.002Z,78.08
2019-02-25T09:10:49.005Z,78.08
2019-02-25T09:11:48.949Z,77.83
2019-02-25T09:12:49.038Z,78.88
2019-02-25T09:13:48.900Z,79.44
2019-02-25T09:14:48.877Z,79.63
2019-02-25T09:15:48.853Z,79.73
2019-02-25T09:16:48.846Z,79.44
2019-02-25T09:17:48.805Z,78.02
2019-02-25T09:18:48.782Z,78.30
2019-02-25T09:19:48.757Z,77.83
2019-02-25T09:20:48.734Z,78.50
2019-02-25T09:21:48.712Z,76.88
2019-02-25T09:22:48.689Z,77.64
2019-02-25T09:23:48.667Z,78.50
2019-02-25T09:24:48.644Z,78.11
2019-02-25T09:25:48.615Z,78.06
2019-02-25T09:26:48.596Z,78.30
2019-02-25T09:27:48.570Z,78.40
2019-02-25T09:28:48.545Z,77.64
2019-02-25T09:29:48.523Z,76.06
2019-02-25T09:30:48.501Z,75.30
2019-02-25T09:31:48.486Z,75.59
2019-02-25T09:32:48.457Z,74.44
2019-02-25T09:33:48.436Z,71.12
2019-02-25T09:34:48.406Z,70.93
2019-02-25T09:35:48.383Z,70.26
2019-02-25T09:36:48.364Z,70.83
2019-02-25T09:37:48.335Z,69.69
2019-02-25T09:38:48.318Z,68.55
2019-02-25T09:39:48.303Z,67.69
2019-02-25T09:40:48.269Z,68.07
2019-02-25T09:41:49.021Z,67.69
2019-02-25T09:42:48.221Z,67.88
2019-02-25T09:43:48.199Z,67.63
2019-02-25T09:44:48.179Z,67.35
2019-02-25T09:45:48.151Z,66.59
2019-02-25T09:46:48.130Z,65.45
2019-02-25T09:47:48.115Z,66.30
2019-02-25T09:48:48.088Z,66.39
2019-02-25T09:49:48.063Z,65.54
2019-02-25T09:50:48.038Z,65.73
2019-02-25T09:51:48.015Z,65.83
2019-02-25T09:52:47.995Z,65.83
2019-02-25T09:53:47.970Z,65.83
2019-02-25T09:54:47.947Z,66.02
2019-02-25T09:55:47.928Z,66.05
2019-02-25T09:56:47.902Z,66.05
2019-02-25T09:57:47.883Z,66.24
2019-02-25T09:58:47.858Z,65.77
2019-02-25T09:59:47.838Z,65.86
2019-02-25T10:00:47.813Z,66.62
2019-02-25T10:01:47.791Z,66.53
2019-02-25T10:02:47.774Z,65.58
2019-02-25T10:03:47.746Z,64.72
2019-02-25T10:04:47.723Z,65.51
2019-02-25T10:05:47.702Z,65.61
2019-02-25T10:06:47.679Z,65.61
2019-02-25T10:07:47.660Z,65.32
2019-02-25T10:08:47.634Z,64.47
2019-02-25T10:09:47.612Z,64.18
2019-02-25T10:10:47.595Z,64.47
2019-02-25T10:11:48.773Z,63.60
2019-02-25T10:12:47.547Z,63.60
2019-02-25T10:13:47.525Z,63.13
2019-02-25T10:14:49.450Z,62.75
2019-02-25T10:15:47.482Z,62.78
2019-02-25T10:16:47.461Z,60.97
2019-02-25T10:17:47.437Z,60.02
2019-02-25T10:18:47.416Z,60.69
2019-02-25T10:19:47.395Z,61.54
2019-02-25T10:20:47.372Z,60.69
2019-02-25T10:21:47.353Z,57.92
2019-02-25T10:22:47.334Z,57.26
2019-02-25T10:23:47.307Z,57.54
2019-02-25T10:24:47.286Z,56.87
2019-02-25T10:25:47.265Z,56.24
2019-02-25T10:26:47.242Z,56.52
2019-02-25T10:27:49.361Z,55.28
2019-02-25T10:28:47.202Z,54.52
2019-02-25T10:29:48.797Z,55.38
2019-02-25T10:30:52.861Z,55.09
2019-02-25T10:31:47.136Z,53.76
2019-02-25T10:32:47.114Z,53.47
2019-02-25T10:33:47.092Z,53.76
2019-02-25T10:34:47.075Z,53.85
2019-02-25T10:35:47.053Z,52.92
2019-02-25T10:36:48.212Z,51.59
2019-02-25T10:37:47.011Z,50.83
2019-02-25T10:38:46.988Z,52.16
2019-02-25T10:39:47.968Z,51.31
2019-02-25T10:40:47.504Z,50.26
2019-02-25T10:41:46.925Z,50.83
2019-02-25T10:42:46.980Z,50.73
2019-02-25T10:43:46.885Z,51.68
2019-02-25T10:44:46.864Z,51.31
2019-02-25T10:45:46.841Z,51.40
2019-02-25T10:46:48.654Z,53.31
2019-02-25T10:47:48.978Z,52.55
2019-02-25T10:48:47.527Z,52.64
2019-02-25T10:49:46.762Z,51.12
2019-02-25T10:50:55.577Z,50.07
2019-02-25T10:51:46.718Z,50.28
2019-02-25T10:52:47.662Z,50.76
2019-02-25T10:53:47.842Z,51.04
2019-02-25T10:54:47.930Z,51.04
2019-02-25T10:55:48.458Z,51.90
2019-02-25T10:56:47.418Z,50.57
2019-02-25T10:57:46.594Z,50.18
2019-02-25T10:58:46.574Z,49.04
2019-02-25T10:59:46.553Z,48.88
2019-02-25T11:00:46.538Z,48.59
2019-02-25T11:01:47.513Z,48.97
2019-02-25T11:02:47.369Z,50.88
2019-02-25T11:03:47.920Z,50.49
2019-02-25T11:04:47.387Z,50.98
2019-02-25T11:05:46.435Z,51.26
2019-02-25T11:06:46.415Z,49.64
2019-02-25T11:07:46.393Z,50.62
2019-02-25T11:08:46.375Z,50.04
2019-02-25T11:09:48.168Z,48.23
2019-02-25T11:10:48.550Z,46.32
2019-02-25T11:11:46.318Z,45.20
2019-02-25T11:12:46.297Z,44.45
2019-02-25T11:13:47.003Z,43.52
2019-02-25T11:14:46.259Z,41.05
2019-02-25T11:15:48.345Z,39.52
2019-02-25T11:16:47.987Z,38.39
2019-02-25T11:17:47.676Z,37.72
2019-02-25T11:18:46.189Z,37.92
2019-02-25T11:19:46.193Z,38.22
2019-02-25T11:20:46.154Z,37.93
2019-02-25T11:21:46.132Z,37.55
2019-02-25T11:22:48.319Z,36.88
2019-02-25T11:23:47.191Z,36.13
2019-02-25T11:24:47.397Z,36.05
2019-02-25T11:25:46.062Z,36.82
2019-02-25T11:26:46.044Z,36.74
2019-02-25T11:27:46.029Z,35.42
2019-02-25T11:28:46.012Z,36.20
2019-02-25T11:29:46.621Z,34.76
2019-02-25T11:30:47.579Z,34.30
2019-02-25T11:31:47.407Z,33.72
2019-02-25T11:32:45.946Z,32.38
2019-02-25T11:33:45.930Z,32.39
2019-02-25T11:34:45.918Z,32.01
2019-02-25T11:35:47.964Z,30.57
2019-02-25T11:36:45.887Z,30.58
2019-02-25T11:37:45.874Z,29.43
2019-02-25T11:38:45.867Z,29.14
2019-02-25T11:39:45.837Z,29.93
2019-02-25T11:40:45.826Z,29.35
2019-02-25T11:41:45.814Z,27.42
2019-02-25T11:42:45.799Z,28.49
2019-02-25T11:43:47.948Z,29.74
2019-02-25T11:44:45.764Z,30.90
2019-02-25T11:45:45.748Z,31.87
2019-02-25T11:46:45.743Z,31.59
2019-02-25T11:47:45.725Z,29.08
2019-02-25T11:48:45.738Z,28.42
2019-02-25T11:49:45.695Z,28.83
2019-02-25T11:50:45.698Z,26.53
2019-02-25T11:51:45.680Z,26.82
2019-02-25T11:52:45.654Z,27.33
2019-02-25T11:53:45.638Z,27.14
2019-02-25T11:54:45.627Z,25.43
2019-02-25T11:55:45.614Z,25.04
2019-02-25T11:56:45.604Z,26.20
2019-02-25T11:57:45.590Z,25.83
2019-02-25T11:58:45.600Z,25.55
2019-02-25T11:59:45.568Z,24.68
2019-02-25T12:00:45.562Z,23.72
2019-02-25T12:01:45.540Z,23.52
2019-02-25T12:02:45.526Z,24.67
2019-02-25T12:03:45.520Z,25.32
2019-02-25T12:04:45.502Z,25.60
2019-02-25T12:05:45.489Z,25.49
2019-02-25T12:06:45.478Z,26.54
2019-02-25T12:07:45.466Z,26.82
2019-02-25T12:08:45.456Z,24.79
2019-02-25T12:09:45.442Z,25.85
2019-02-25T12:10:45.429Z,24.39
2019-02-25T12:11:45.418Z,24.67
2019-02-25T12:12:45.405Z,25.43
2019-02-25T12:13:45.392Z,25.99
2019-02-25T12:14:45.390Z,26.17
2019-02-25T12:15:45.367Z,27.04
2019-02-25T12:16:45.356Z,27.12
2019-02-25T12:18:21.384Z,27.01
2019-02-25T12:18:45.328Z,27.11
2019-02-25T12:19:45.316Z,27.69
2019-02-25T12:20:45.302Z,28.26
2019-02-25T12:21:46.835Z,27.80
2019-02-25T12:22:45.278Z,29.04
2019-02-25T12:23:45.262Z,29.06
2019-02-25T12:24:45.249Z,29.04
2019-02-25T12:25:45.234Z,29.14
2019-02-25T12:26:45.224Z,29.62
2019-02-25T12:27:45.207Z,31.35
2019-02-25T12:28:45.196Z,31.05
2019-02-25T12:29:45.180Z,29.99
2019-02-25T12:30:45.169Z,29.13
2019-02-25T12:31:45.154Z,30.49
2019-02-25T12:32:45.138Z,30.10
2019-02-25T12:33:45.123Z,29.81
2019-02-25T12:34:45.110Z,27.12
2019-02-25T12:35:45.098Z,29.14
2019-02-25T12:36:45.085Z,27.12
2019-02-25T12:37:45.067Z,28.47
2019-02-25T12:38:45.055Z,27.60
2019-02-25T12:39:45.043Z,28.75
2019-02-25T12:40:46.843Z,27.60
2019-02-25T12:41:45.012Z,26.06
2019-02-25T12:42:44.998Z,27.22
2019-02-25T12:43:44.990Z,27.31
2019-02-25T12:44:44.970Z,26.83
2019-02-25T12:45:44.982Z,28.18
2019-02-25T12:46:44.944Z,25.85
2019-02-25T12:47:44.950Z,26.62
2019-02-25T12:48:44.917Z,28.15
2019-02-25T12:49:44.897Z,26.50
2019-02-25T12:50:44.881Z,26.49
2019-02-25T12:51:44.873Z,27.16